Time;durP1;ratioP1;P1;durP2;ratioP2;P2;SDS_P1;SDS_P2;PMS_P1;PMS_P2;Temp;Humidity;BMP_temperature;BMP_pressure;BME280_temperature;BME280_humidity;BME280_pressure;Samples;Min_cycle;Max_cycle;Signal;HPM_P1;HPM_P2
2022/04/20 00:01:54;;;;;;;35.30;27.60;;;;;;;6.19;58.28;100363.40;109683;1260;22007;-79
2022/04/20 00:04:28;;;;;;;36.70;27.30;;;;;;;6.15;58.14;100361.63;109695;1261;21978;-79
2022/04/20 00:06:58;;;;;;;38.70;27.30;;;;;;;6.14;58.15;100363.09;109863;1260;22494;-79
2022/04/20 00:09:32;;;;;;;33.70;27.40;;;;;;;6.12;58.10;100362.02;109871;1255;23576;-78
2022/04/20 00:12:07;;;;;;;37.50;27.50;;;;;;;6.13;58.15;100363.20;110630;1249;21974;-79
2022/04/20 00:14:37;;;;;;;34.80;27.80;;;;;;;6.13;58.16;100359.86;110328;1257;21993;-80
2022/04/20 00:17:14;;;;;;;38.90;32.00;;;;;;;6.12;58.07;100360.86;110037;1255;23691;-79
2022/04/20 00:19:44;;;;;;;36.20;28.90;;;;;;;6.10;58.17;100367.44;109835;1260;23084;-80
2022/04/20 00:22:13;;;;;;;34.60;27.50;;;;;;;6.11;58.33;100370.13;109904;1260;23399;-80
2022/04/20 00:24:51;;;;;;;35.70;28.00;;;;;;;6.18;58.50;100370.81;109555;1260;25063;-80
2022/04/20 00:27:21;;;;;;;35.10;28.70;;;;;;;6.23;58.56;100369.83;109294;1260;23164;-79
2022/04/20 00:29:57;;;;;;;36.40;27.90;;;;;;;6.26;58.63;100369.21;109356;1267;22019;-80
2022/04/20 00:32:30;;;;;;;;;;;;;;;6.27;58.50;100371.20;109389;1260;22394;-80
2022/04/20 00:35:02;;;;;;;32.00;24.40;;;;;;;6.21;58.66;100372.48;110089;1258;21982;-80
2022/04/20 00:37:42;;;;;;;30.30;24.70;;;;;;;6.20;58.81;100371.34;109745;1253;23110;-80
2022/04/20 00:40:22;;;;;;;30.10;24.20;;;;;;;6.21;58.78;100370.04;110554;1254;23071;-80
2022/04/20 00:42:56;;;;;;;30.60;24.90;;;;;;;6.21;58.70;100366.17;110442;1257;22277;-80
2022/04/20 00:45:34;;;;;;;29.90;25.40;;;;;;;6.21;58.73;100369.65;110200;1258;21984;-80
2022/04/20 00:48:10;;;;;;;36.60;26.20;;;;;;;6.21;58.76;100367.73;110308;1254;22032;-79
2022/04/20 00:50:44;;;;;;;29.50;24.80;;;;;;;6.21;58.74;100365.23;110836;1252;23004;-80
2022/04/20 00:53:16;;;;;;;31.10;23.40;;;;;;;6.22;58.81;100363.07;110737;1252;21949;-80
2022/04/20 00:55:54;;;;;;;27.10;21.60;;;;;;;6.25;58.71;100362.13;110804;1253;22931;-80
2022/04/20 00:58:27;;;;;;;28.50;22.80;;;;;;;6.29;58.81;100359.46;110678;1254;21955;-79
2022/04/20 01:00:58;;;;;;;26.50;22.70;;;;;;;6.33;58.81;100352.08;110819;1249;22307;-79
2022/04/20 01:03:36;;;;;;;26.70;21.20;;;;;;;6.37;58.75;100350.17;110477;1254;23031;-79
2022/04/20 01:06:41;;;;;;;36.00;23.60;;;;;;;6.39;58.79;100349.85;110497;1254;22066;-79
2022/04/20 01:09:51;;;;;;;27.50;23.90;;;;;;;6.37;58.71;100348.05;110551;1252;23064;-79
2022/04/20 01:12:45;;;;;;;28.80;22.80;;;;;;;6.34;58.61;100353.58;110584;1252;21963;-80
2022/04/20 01:15:38;;;;;;;27.80;24.00;;;;;;;6.30;58.58;100352.89;110564;1252;21971;-80
2022/04/20 01:18:19;;;;;;;28.00;23.20;;;;;;;6.28;58.56;100353.48;110787;1252;22421;-80
2022/04/20 01:20:54;;;;;;;28.90;23.90;;;;;;;6.25;58.54;100354.94;110639;1251;24275;-79
2022/04/20 01:23:41;;;;;;;31.50;24.40;;;;;;;6.23;58.63;100351.92;110773;1250;22470;-78
2022/04/20 01:26:35;;;;;;;28.10;22.30;;;;;;;6.24;58.79;100349.98;110386;1255;21995;-78
2022/04/20 01:29:21;;;;;;;26.70;21.80;;;;;;;6.29;59.05;100347.59;110505;1254;22069;-79
2022/04/20 01:32:20;;;;;;;28.50;22.60;;;;;;;6.35;59.09;100350.38;110522;1254;21929;-80
2022/04/20 01:35:22;;;;;;;30.80;22.90;;;;;;;6.37;59.02;100351.35;110518;1254;22097;-80
2022/04/20 01:37:55;;;;;;;25.70;22.10;;;;;;;6.39;58.94;100347.38;109878;1259;22132;-79
2022/04/20 01:40:25;;;;;;;28.00;23.20;;;;;;;6.39;58.82;100345.81;109965;1259;22952;-80
2022/04/20 01:42:54;;;;;;;26.20;23.40;;;;;;;6.37;58.72;100344.73;109272;1264;23766;-79
2022/04/20 01:45:26;;;;;;;;;;;;;;;6.35;58.69;100342.14;109506;1261;23042;-80
2022/04/20 01:48:37;;;;;;;29.60;22.90;;;;;;;6.25;58.92;100341.85;108857;1270;22015;-79
2022/04/20 01:51:54;;;;;;;27.90;24.90;;;;;;;6.22;59.06;100337.00;108641;1276;22650;-81
2022/04/20 01:54:51;;;;;;;25.70;22.90;;;;;;;6.23;59.07;100337.44;108699;1276;21999;-79
2022/04/20 01:57:30;;;;;;;28.50;23.30;;;;;;;6.25;59.01;100335.46;108701;1270;23037;-79
2022/04/20 02:00:18;;;;;;;23.10;20.80;;;;;;;6.30;58.97;100329.80;108955;1270;21978;-80
2022/04/20 02:03:14;;;;;;;25.10;21.60;;;;;;;6.37;58.99;100325.38;109069;1267;23616;-79
2022/04/20 02:05:53;;;;;;;25.30;20.90;;;;;;;6.42;59.03;100325.04;108990;1267;22002;-80
2022/04/20 02:08:42;;;;;;;21.90;19.70;;;;;;;6.46;58.97;100319.96;109416;1262;23074;-80
2022/04/20 02:11:20;;;;;;;23.00;20.60;;;;;;;6.48;58.90;100319.41;109981;1259;23639;-81
2022/04/20 02:13:59;;;;;;;22.20;19.90;;;;;;;6.49;58.91;100316.14;110202;1259;22942;-80
2022/04/20 02:16:35;;;;;;;23.80;21.30;;;;;;;6.50;58.79;100309.81;109224;1265;22182;-79
2022/04/20 02:19:30;;;;;;;24.40;22.00;;;;;;;6.49;58.74;100307.13;109584;1259;21977;-80
2022/04/20 02:22:11;;;;;;;24.40;21.80;;;;;;;6.48;58.65;100305.76;109900;1259;22379;-80
2022/04/20 02:24:46;;;;;;;22.90;20.40;;;;;;;6.47;58.62;100303.73;109974;1260;21988;-80
2022/04/20 02:27:18;;;;;;;22.30;19.30;;;;;;;6.48;58.63;100303.34;110073;1258;21990;-80
2022/04/20 02:29:54;;;;;;;21.30;19.10;;;;;;;6.47;58.55;100298.52;109820;1261;21999;-79
2022/04/20 02:32:24;;;;;;;21.80;17.90;;;;;;;6.47;58.53;100295.17;109566;1261;23055;-79
2022/04/20 02:34:54;;;;;;;22.80;18.80;;;;;;;6.49;58.58;100289.43;109430;1257;23035;-80
2022/04/20 02:37:43;;;;;;;21.40;19.20;;;;;;;6.51;58.63;100286.06;110056;1257;23686;-79
2022/04/20 02:40:19;;;;;;;18.20;16.50;;;;;;;6.52;58.62;100291.23;110291;1257;22100;-80
2022/04/20 02:43:02;;;;;;;21.30;18.10;;;;;;;6.52;58.64;100289.35;109912;1261;22097;-79
2022/04/20 02:45:39;;;;;;;22.30;17.40;;;;;;;6.51;58.59;100285.37;109475;1262;21995;-80
2022/04/20 02:48:10;;;;;;;20.30;18.00;;;;;;;6.50;58.59;100285.13;109972;1258;22077;-80
2022/04/20 02:50:48;;;;;;;22.20;17.40;;;;;;;6.50;58.46;100284.80;110496;1254;22085;-80
2022/04/20 02:53:27;;;;;;;20.00;18.00;;;;;;;6.50;58.61;100285.84;110493;1254;23026;-79
2022/04/20 02:56:15;;;;;;;17.60;15.90;;;;;;;6.48;58.56;100281.98;110613;1255;23315;-80
2022/04/20 02:58:50;;;;;;;19.00;17.10;;;;;;;6.46;58.51;100277.59;110556;1255;21988;-80
2022/04/20 03:01:36;;;;;;;;;;;;;;;;;;;;;
2022/04/20 03:04:12;;;;;;;16.30;14.70;;;;;;;6.48;58.71;100274.56;110760;1253;22085;-81
2022/04/20 03:06:44;;;;;;;18.70;16.70;;;;;;;6.53;58.74;100268.30;110768;1253;21965;-81
2022/04/20 03:09:40;;;;;;;17.20;15.50;;;;;;;6.58;58.73;100261.75;110783;1253;21953;-81
2022/04/20 03:12:25;;;;;;;18.50;15.30;;;;;;;6.59;58.75;100260.45;110774;1253;21962;-83
2022/04/20 03:15:20;;;;;;;18.50;15.10;;;;;;;6.61;58.77;100250.16;110558;1256;22834;-81
2022/04/20 03:17:50;;;;;;;17.40;14.60;;;;;;;6.62;58.75;100247.58;109567;1262;23623;-80
2022/04/20 03:20:37;;;;;;;19.30;15.80;;;;;;;6.62;58.67;100243.55;109696;1262;22475;-80
2022/04/20 03:23:26;;;;;;;16.80;15.10;;;;;;;6.59;58.61;100242.57;109242;1267;23067;-80
2022/04/20 03:26:06;;;;;;;17.10;15.40;;;;;;;6.56;58.68;100240.05;109014;1267;23595;-80
2022/04/20 03:29:06;;;;;;;18.90;16.20;;;;;;;6.53;58.70;100241.05;109305;1267;21990;-80
2022/04/20 03:31:43;;;;;;;18.50;16.10;;;;;;;6.51;58.71;100238.60;109120;1267;22933;-81
2022/04/20 03:34:16;;;;;;;18.00;16.20;;;;;;;6.53;58.73;100240.23;109248;1267;22008;-80
2022/04/20 03:36:52;;;;;;;17.50;15.70;;;;;;;6.55;58.73;100244.20;108725;1273;22059;-81
2022/04/20 03:39:37;;;;;;;17.10;15.10;;;;;;;6.60;58.78;100244.48;108345;1276;22001;-78
2022/04/20 03:42:08;;;;;;;16.00;14.30;;;;;;;6.67;59.00;100246.60;108664;1267;22036;-78
2022/04/20 03:44:43;;;;;;;16.50;14.80;;;;;;;6.74;59.02;100246.48;109144;1267;23012;-78
2022/04/20 03:47:12;;;;;;;15.90;14.40;;;;;;;6.78;58.98;100249.59;109129;1266;21981;-78
2022/04/20 03:49:43;;;;;;;15.70;14.10;;;;;;;6.81;58.89;100250.17;109587;1263;21989;-80
2022/04/20 03:52:14;;;;;;;17.70;14.10;;;;;;;6.82;58.74;100246.53;109787;1263;22130;-81
2022/04/20 03:54:44;;;;;;;16.90;14.30;;;;;;;6.82;58.62;100247.27;110053;1256;21988;-80
2022/04/20 03:57:25;;;;;;;15.70;14.10;;;;;;;6.78;58.47;100244.64;110426;1250;21967;-79
2022/04/20 03:59:59;;;;;;;17.20;15.10;;;;;;;6.71;58.55;100241.67;111064;1249;22191;-82
2022/04/20 04:02:37;;;;;;;17.40;15.70;;;;;;;6.66;58.63;100239.00;110847;1250;21975;-82
2022/04/20 04:05:14;;;;;;;16.80;15.20;;;;;;;6.65;58.87;100239.81;111054;1249;21976;-80
2022/04/20 04:07:52;;;;;;;17.80;14.40;;;;;;;6.66;59.01;100238.81;110790;1253;21965;-79
2022/04/20 04:10:29;;;;;;;18.70;14.40;;;;;;;6.68;59.09;100239.67;110481;1253;23030;-79
2022/04/20 04:13:00;;;;;;;21.60;16.80;;;;;;;6.68;59.19;100237.05;110539;1253;23022;-78
2022/04/20 04:15:39;;;;;;;18.00;15.80;;;;;;;6.65;59.35;100235.75;110237;1256;21965;-78
2022/04/20 04:18:11;;;;;;;18.70;16.80;;;;;;;6.65;59.60;100237.74;110759;1253;21976;-78
2022/04/20 04:20:55;;;;;;;22.50;17.20;;;;;;;6.64;59.63;100235.02;110313;1256;21946;-78
2022/04/20 04:23:36;;;;;;;16.60;14.90;;;;;;;6.61;59.79;100235.43;110264;1256;23592;-79
2022/04/20 04:26:18;;;;;;;19.70;14.90;;;;;;;6.60;59.99;100233.81;110836;1249;21976;-80
2022/04/20 04:29:00;;;;;;;16.90;14.60;;;;;;;6.61;60.21;100232.29;110591;1255;23056;-80
2022/04/20 04:31:34;;;;;;;14.90;13.40;;;;;;;6.62;60.39;100235.50;110343;1255;22547;-81
2022/04/20 04:34:06;;;;;;;16.70;14.90;;;;;;;6.63;60.57;100235.82;110136;1255;21967;-79
2022/04/20 04:36:36;;;;;;;16.50;14.50;;;;;;;6.61;60.76;100237.52;110255;1255;21927;-78
2022/04/20 04:39:05;;;;;;;15.20;13.70;;;;;;;6.59;60.93;100239.61;109683;1262;21979;-80
2022/04/20 04:41:38;;;;;;;16.50;13.70;;;;;;;6.59;61.18;100241.25;109889;1260;22513;-78
2022/04/20 04:44:09;;;;;;;15.00;13.50;;;;;;;6.60;61.45;100242.67;109607;1262;21972;-78
2022/04/20 04:49:32;;;;;;;14.50;13.00;;;;;;;6.65;61.88;100236.80;109926;1261;22748;-79
2022/04/20 04:52:04;;;;;;;15.10;13.60;;;;;;;6.67;62.18;100240.83;109722;1260;23685;-79
2022/04/20 04:54:35;;;;;;;13.90;12.60;;;;;;;6.69;62.34;100236.27;109844;1260;22015;-79
2022/04/20 04:57:15;;;;;;;12.30;10.80;;;;;;;6.69;62.49;100237.34;109517;1260;22166;-78
2022/04/20 04:59:50;;;;;;;11.30;10.20;;;;;;;6.71;62.75;100236.80;109876;1260;22013;-78
2022/04/20 05:02:23;;;;;;;10.50;9.50;;;;;;;6.76;63.01;100233.85;109808;1260;22066;-78
2022/04/20 05:04:53;;;;;;;12.60;11.30;;;;;;;6.80;63.18;100228.17;110211;1255;23020;-78
2022/04/20 05:07:32;;;;;;;12.90;11.70;;;;;;;6.81;63.35;100223.74;110296;1255;21963;-78
2022/04/20 05:10:07;;;;;;;12.30;11.10;;;;;;;6.81;63.59;100220.61;110052;1259;22210;-79
2022/04/20 05:12:41;;;;;;;14.50;11.80;;;;;;;6.81;63.70;100221.50;110191;1253;23004;-79
2022/04/20 05:15:15;;;;;;;12.40;11.20;;;;;;;6.80;63.79;100221.86;109845;1261;21974;-79
2022/04/20 05:17:45;;;;;;;11.60;10.60;;;;;;;6.79;64.00;100221.77;109239;1265;23066;-79
2022/04/20 05:20:19;;;;;;;11.60;10.60;;;;;;;6.80;64.24;100225.70;109240;1267;23088;-78
2022/04/20 05:22:53;;;;;;;11.90;10.70;;;;;;;6.81;64.47;100222.19;109476;1262;22992;-79
2022/04/20 05:25:23;;;;;;;;;;;;;;;6.80;64.69;100223.06;109378;1265;21960;-79
2022/04/20 05:27:55;;;;;;;11.10;10.00;;;;;;;6.74;64.99;100222.80;109324;1261;21999;-79
2022/04/20 05:30:40;;;;;;;;;;;;;;;;;;;;;
2022/04/20 05:33:14;;;;;;;11.60;10.50;;;;;;;6.74;65.30;100218.40;110119;1258;22463;-80
2022/04/20 05:35:52;;;;;;;12.50;11.20;;;;;;;6.80;65.54;100220.50;110398;1250;21975;-78
2022/04/20 05:44:24;;;;;;;13.20;11.80;;;;;;;6.96;66.22;100214.18;109537;1264;23127;-77
2022/04/20 05:46:55;;;;;;;12.70;11.40;;;;;;;7.00;66.35;100213.14;109567;1264;23694;-77
2022/04/20 05:49:26;;;;;;;14.10;10.90;;;;;;;7.04;66.40;100213.06;109368;1265;22008;-77
2022/04/20 05:51:56;;;;;;;13.40;10.90;;;;;;;7.10;66.47;100210.42;109531;1265;22060;-77
2022/04/20 05:54:25;;;;;;;13.70;12.30;;;;;;;7.16;66.50;100210.22;109363;1265;21983;-78
2022/04/20 05:56:55;;;;;;;13.40;12.00;;;;;;;7.19;66.56;100205.05;109734;1260;22071;-76
2022/04/20 05:59:26;;;;;;;17.30;15.50;;;;;;;7.19;66.64;100202.70;109160;1267;21995;-77
2022/04/20 06:01:57;;;;;;;15.00;13.60;;;;;;;7.21;66.94;100202.88;109184;1262;21992;-76
2022/04/20 06:04:28;;;;;;;18.00;16.10;;;;;;;7.22;67.05;100199.84;109887;1262;23597;-76
2022/04/20 06:07:04;;;;;;;16.20;14.80;;;;;;;7.23;67.14;100197.95;109766;1262;23069;-77
2022/04/20 06:09:47;;;;;;;14.00;12.70;;;;;;;7.28;67.54;100198.35;108932;1267;22088;-77
2022/04/20 06:12:32;;;;;;;13.40;12.10;;;;;;;7.30;67.72;100200.63;108785;1270;23828;-76
2022/04/20 06:15:20;;;;;;;12.50;11.20;;;;;;;7.31;67.90;100201.17;108847;1270;23188;-77
2022/04/20 06:18:10;;;;;;;11.90;10.70;;;;;;;7.29;68.14;100200.66;109230;1259;21979;-77
2022/04/20 06:20:40;;;;;;;11.50;10.30;;;;;;;7.30;68.18;100198.03;109671;1259;23046;-78
2022/04/20 06:23:24;;;;;;;11.70;10.60;;;;;;;7.31;68.32;100199.30;109949;1259;23132;-77
2022/04/20 06:26:23;;;;;;;12.70;11.40;;;;;;;7.35;68.77;100199.23;109738;1259;23054;-80
2022/04/20 06:29:10;;;;;;;12.50;11.30;;;;;;;7.37;68.95;100196.45;109414;1261;21977;-76
2022/04/20 06:31:58;;;;;;;13.40;10.80;;;;;;;7.41;69.23;100187.45;110088;1256;23581;-75
2022/04/20 06:34:44;;;;;;;11.30;9.60;;;;;;;7.49;69.48;100183.09;110283;1256;22010;-74
2022/04/20 06:37:39;;;;;;;13.40;9.70;;;;;;;7.56;69.32;100179.59;110351;1256;22023;-76
2022/04/20 06:40:16;;;;;;;13.20;10.90;;;;;;;7.59;69.06;100178.67;110363;1255;22068;-76
2022/04/20 06:43:05;;;;;;;11.90;10.70;;;;;;;7.60;69.20;100181.04;109788;1262;22017;-73
2022/04/20 06:45:54;;;;;;;12.80;10.30;;;;;;;7.60;69.34;100176.10;109852;1261;22055;-75
2022/04/20 06:48:39;;;;;;;11.70;8.80;;;;;;;7.58;69.27;100168.60;109911;1261;21982;-74
2022/04/20 06:58:31;;;;;;;9.80;8.90;;;;;;;7.59;69.36;100166.58;110029;1258;23087;-77
2022/04/20 07:00:18;;;;;;;10.80;8.80;;;;;;;7.74;69.94;100162.05;109412;1261;23593;-77
2022/04/20 07:03:13;;;;;;;9.40;8.50;;;;;;;7.76;69.59;100161.86;109439;1261;23051;-76
2022/04/20 07:05:45;;;;;;;9.70;8.80;;;;;;;7.80;69.51;100158.70;109304;1264;21970;-76
2022/04/20 07:08:38;;;;;;;10.90;9.10;;;;;;;7.80;69.29;100161.66;109752;1262;24709;-76
2022/04/20 07:11:13;;;;;;;10.90;9.70;;;;;;;7.78;69.28;100159.74;109674;1262;22226;-77
2022/04/20 07:13:46;;;;;;;11.10;9.70;;;;;;;7.77;69.34;100162.14;109791;1261;23001;-76
2022/04/20 07:16:16;;;;;;;9.70;7.80;;;;;;;7.77;69.34;100160.04;109908;1256;22086;-76
2022/04/20 07:18:57;;;;;;;9.10;7.70;;;;;;;7.75;69.25;100161.40;110267;1254;22466;-77
2022/04/20 07:21:39;;;;;;;10.20;8.00;;;;;;;7.74;69.38;100159.29;110011;1262;22078;-77
2022/04/20 07:24:27;;;;;;;9.60;8.10;;;;;;;7.74;69.45;100158.02;110223;1257;21987;-75
2022/04/20 07:27:16;;;;;;;10.20;7.00;;;;;;;7.71;69.33;100152.33;110535;1258;23363;-77
2022/04/20 07:30:28;;;;;;;9.40;7.30;;;;;;;7.70;69.41;100152.35;109968;1262;22662;-81
2022/04/20 07:33:27;;;;;;;8.40;6.70;;;;;;;7.69;69.46;100150.95;109282;1267;22015;-76
2022/04/20 07:36:23;;;;;;;11.60;9.70;;;;;;;7.68;69.33;100150.70;108978;1267;22051;-77
2022/04/20 07:39:07;;;;;;;8.30;7.50;;;;;;;7.64;69.52;100148.66;108980;1264;21980;-77
2022/04/20 07:41:55;;;;;;;9.00;7.40;;;;;;;7.61;69.59;100147.08;109389;1264;22172;-76
2022/04/20 07:44:48;;;;;;;8.60;7.10;;;;;;;7.58;69.54;100143.34;109302;1264;23493;-77
2022/04/20 07:47:31;;;;;;;9.90;7.10;;;;;;;7.57;69.71;100143.56;109362;1264;21975;-76
2022/04/20 07:50:20;;;;;;;8.30;7.20;;;;;;;7.62;70.09;100142.94;108991;1270;23106;-76
2022/04/20 07:53:07;;;;;;;9.80;7.10;;;;;;;7.59;69.70;100138.91;108876;1269;22444;-79
2022/04/20 07:55:47;;;;;;;7.50;6.50;;;;;;;7.54;69.83;100140.05;108874;1270;22072;-78
2022/04/20 07:58:35;;;;;;;12.30;8.80;;;;;;;7.56;70.15;100139.15;108876;1270;23804;-77
2022/04/20 08:01:19;;;;;;;21.60;13.40;;;;;;;7.56;69.82;100140.70;109187;1261;21973;-78
2022/04/20 08:03:55;;;;;;;25.90;11.30;;;;;;;7.56;69.84;100141.59;109701;1262;22390;-78
2022/04/20 08:06:37;;;;;;;28.50;11.00;;;;;;;7.54;69.92;100143.52;109888;1262;23579;-78
2022/04/20 08:09:12;;;;;;;14.10;7.40;;;;;;;7.54;70.09;100140.25;110267;1253;22496;-78
2022/04/20 08:11:41;;;;;;;;;;;;;;;7.53;69.96;100141.36;109730;1259;24291;-79
2022/04/20 08:14:16;;;;;;;15.80;8.30;;;;;;;7.44;69.87;100141.36;109408;1262;21978;-78
2022/04/20 08:16:49;;;;;;;15.00;7.90;;;;;;;7.42;69.88;100135.11;109346;1265;23220;-79
2022/04/20 08:19:26;;;;;;;7.40;4.80;;;;;;;7.41;69.93;100137.30;109091;1268;23008;-78
2022/04/20 08:22:07;;;;;;;9.10;5.30;;;;;;;7.37;69.80;100134.27;108800;1270;23043;-79
2022/04/20 08:24:43;;;;;;;6.40;3.90;;;;;;;7.31;69.81;100133.05;108945;1270;22332;-78
2022/04/20 08:27:14;;;;;;;8.50;4.90;;;;;;;7.26;69.76;100132.64;108755;1271;23605;-75
2022/04/20 08:29:45;;;;;;;7.60;5.10;;;;;;;7.21;69.68;100128.27;108742;1268;21986;-76
2022/04/20 08:32:19;;;;;;;8.90;5.70;;;;;;;7.17;69.67;100121.27;108776;1268;22010;-77
2022/04/20 08:34:52;;;;;;;7.80;4.30;;;;;;;7.16;69.78;100115.34;108755;1267;21985;-75
2022/04/20 08:37:36;;;;;;;5.60;3.60;;;;;;;7.13;69.98;100108.92;108961;1268;22757;-79
2022/04/20 08:40:06;;;;;;;4.70;3.00;;;;;;;7.10;70.05;100106.46;108995;1270;21985;-78
2022/04/20 08:42:40;;;;;;;3.20;2.30;;;;;;;7.08;69.98;100103.50;108831;1270;22384;-78
2022/04/20 08:45:10;;;;;;;3.90;3.00;;;;;;;7.05;69.88;100104.29;108986;1265;22920;-77
2022/04/20 08:47:40;;;;;;;3.30;1.80;;;;;;;7.01;69.82;100097.64;109167;1264;23642;-77
2022/04/20 08:50:10;;;;;;;4.40;2.80;;;;;;;6.96;69.72;100094.48;109334;1262;21963;-77
2022/04/20 08:52:43;;;;;;;3.70;2.70;;;;;;;6.93;69.92;100093.38;109975;1253;23562;-77
2022/04/20 08:55:18;;;;;;;5.40;4.10;;;;;;;6.93;70.04;100091.81;110331;1253;21958;-77
2022/04/20 08:57:50;;;;;;;5.60;3.50;;;;;;;6.94;70.05;100088.44;110218;1253;21976;-77
2022/04/20 09:00:26;;;;;;;5.50;3.20;;;;;;;6.97;70.08;100082.48;110010;1259;22077;-77
2022/04/20 09:03:00;;;;;;;5.60;3.20;;;;;;;6.98;70.02;100077.45;110035;1256;23067;-77
2022/04/20 09:05:33;;;;;;;7.40;4.10;;;;;;;6.97;70.05;100074.91;110315;1256;21971;-76
2022/04/20 09:08:12;;;;;;;7.80;5.70;;;;;;;6.99;70.17;100073.87;110231;1256;23774;-77
2022/04/20 09:10:45;;;;;;;10.90;6.70;;;;;;;7.00;70.18;100073.09;110354;1256;22037;-78
2022/04/20 09:13:14;;;;;;;8.20;6.70;;;;;;;6.97;70.11;100073.23;109752;1261;23273;-78
2022/04/20 09:15:43;;;;;;;10.00;6.90;;;;;;;6.96;70.18;100072.99;109712;1262;21972;-77
2022/04/20 09:18:12;;;;;;;11.30;7.40;;;;;;;6.95;70.31;100074.44;109748;1255;22350;-78
2022/04/20 09:20:42;;;;;;;6.30;5.30;;;;;;;6.94;70.36;100073.90;110440;1256;23069;-77
2022/04/20 09:23:14;;;;;;;5.70;4.10;;;;;;;6.89;70.32;100070.30;110436;1256;22032;-76
2022/04/20 09:25:50;;;;;;;3.90;3.50;;;;;;;6.85;70.48;100066.69;110420;1254;23085;-77
2022/04/20 09:28:22;;;;;;;7.50;4.60;;;;;;;6.85;70.64;100063.04;110386;1256;22011;-77
2022/04/20 09:30:52;;;;;;;6.90;4.60;;;;;;;6.87;70.73;100061.78;110238;1251;21967;-77
2022/04/20 09:33:41;;;;;;;6.30;3.90;;;;;;;6.85;70.69;100061.05;110597;1254;22033;-76
2022/04/20 09:36:13;;;;;;;5.50;4.40;;;;;;;6.80;70.76;100058.45;110241;1259;23224;-76
2022/04/20 09:39:02;;;;;;;7.10;5.30;;;;;;;6.81;71.15;100056.21;110162;1257;23672;-77
2022/04/20 09:41:54;;;;;;;8.90;6.20;;;;;;;6.85;71.36;100050.90;110186;1259;22664;-78
2022/04/20 09:44:23;;;;;;;10.90;6.80;;;;;;;6.90;71.53;100046.23;110109;1259;22085;-77
2022/04/20 09:50:06;;;;;;;7.90;6.30;;;;;;;7.13;71.93;100044.11;110235;1258;21967;-77
2022/04/20 09:52:44;;;;;;;8.10;6.90;;;;;;;7.22;71.96;100040.20;109988;1259;23030;-77
2022/04/20 09:55:26;;;;;;;6.60;5.90;;;;;;;7.29;72.02;100036.02;110444;1250;23044;-76
2022/04/20 09:58:18;;;;;;;12.30;9.90;;;;;;;7.40;72.03;100031.11;111037;1250;21953;-76
2022/04/20 10:00:59;;;;;;;10.80;8.00;;;;;;;7.52;72.05;100033.48;111146;1248;23597;-77
2022/04/20 10:03:31;;;;;;;10.00;7.80;;;;;;;7.66;72.10;100028.14;110869;1250;22982;-77
2022/04/20 10:06:02;;;;;;;7.30;6.60;;;;;;;7.79;72.04;100024.85;110734;1250;22671;-77
2022/04/20 10:08:33;;;;;;;9.30;6.90;;;;;;;7.90;71.92;100024.40;110755;1251;23799;-77
2022/04/20 10:11:05;;;;;;;7.30;6.40;;;;;;;7.96;71.51;100023.94;110427;1257;23575;-78
2022/04/20 10:13:36;;;;;;;;;;;;;;;8.03;71.67;100023.52;110186;1256;23059;-78
2022/04/20 10:16:10;;;;;;;6.50;5.30;;;;;;;8.09;71.92;100018.02;109819;1262;23111;-77
2022/04/20 10:18:40;;;;;;;6.80;5.40;;;;;;;8.20;71.80;100016.84;109973;1259;21986;-77
2022/04/20 10:21:13;;;;;;;5.90;5.20;;;;;;;8.35;71.37;100019.39;110016;1259;23638;-77
2022/04/20 10:23:49;;;;;;;5.50;4.70;;;;;;;8.41;70.88;100017.52;110089;1259;22753;-77
2022/04/20 10:26:21;;;;;;;6.00;4.70;;;;;;;8.45;70.64;100013.27;109988;1259;22091;-77
2022/04/20 10:29:39;;;;;;;6.30;5.20;;;;;;;8.47;70.45;100016.14;109663;1259;23603;-78
2022/04/20 10:32:40;;;;;;;7.00;5.00;;;;;;;8.46;70.21;100010.80;109172;1267;23737;-78
2022/04/20 10:35:12;;;;;;;6.30;5.30;;;;;;;8.49;70.21;100008.48;109304;1259;23827;-77
2022/04/20 10:38:11;;;;;;;6.20;5.20;;;;;;;8.57;70.37;100009.20;110267;1258;23580;-76
2022/04/20 10:41:13;;;;;;;7.50;5.90;;;;;;;8.63;70.28;100010.46;110572;1258;22000;-78
2022/04/20 10:43:44;;;;;;;8.40;7.50;;;;;;;8.63;69.97;100014.45;110103;1258;21974;-77
2022/04/20 10:46:17;;;;;;;8.20;6.70;;;;;;;8.64;70.10;100014.25;109685;1262;23651;-77
2022/04/20 10:49:07;;;;;;;7.20;6.30;;;;;;;8.68;70.12;100016.95;109808;1263;21972;-77
2022/04/20 10:51:42;;;;;;;5.10;4.60;;;;;;;8.69;69.65;100011.19;109724;1262;21972;-77
2022/04/20 10:54:18;;;;;;;9.00;7.30;;;;;;;8.63;69.45;100012.70;109793;1262;21983;-78
2022/04/20 10:57:02;;;;;;;15.20;11.20;;;;;;;8.59;69.32;100011.95;109782;1262;22016;-77
2022/04/20 10:59:33;;;;;;;13.80;9.40;;;;;;;8.53;69.37;100007.63;109641;1260;21966;-77
2022/04/20 11:02:03;;;;;;;10.40;8.20;;;;;;;8.50;69.56;100010.61;109599;1262;22417;-77
2022/04/20 11:04:43;;;;;;;12.40;8.70;;;;;;;8.52;69.70;100011.48;110862;1250;21964;-76
2022/04/20 11:07:26;;;;;;;11.40;8.70;;;;;;;8.53;69.74;100010.33;110919;1249;21972;-78
2022/04/20 11:10:06;;;;;;;9.70;7.80;;;;;;;8.52;69.59;100008.29;111007;1250;23033;-77
2022/04/20 11:18:45;;;;;;;6.20;5.40;;;;;;;8.38;69.40;100009.40;111165;1249;22639;-77
2022/04/20 11:21:21;;;;;;;6.30;5.20;;;;;;;8.32;69.39;100008.41;111009;1250;22520;-76
2022/04/20 11:23:59;;;;;;;9.40;6.90;;;;;;;8.29;69.37;100009.69;110816;1250;23584;-76
2022/04/20 11:26:48;;;;;;;9.40;7.90;;;;;;;8.27;69.51;100007.62;110753;1250;23544;-76
2022/04/20 11:29:23;;;;;;;8.50;6.80;;;;;;;8.27;69.65;100014.55;110897;1250;21973;-76
2022/04/20 11:32:02;;;;;;;7.40;6.50;;;;;;;8.30;69.60;100012.48;110885;1250;22482;-77
2022/04/20 11:34:41;;;;;;;8.10;7.10;;;;;;;8.32;69.66;100017.00;110746;1253;23716;-76
2022/04/20 11:37:12;;;;;;;6.90;5.80;;;;;;;8.32;69.62;100015.63;110715;1250;24271;-77
2022/04/20 11:39:41;;;;;;;8.60;6.30;;;;;;;8.31;69.53;100013.31;110896;1249;21967;-76
2022/04/20 11:42:11;;;;;;;5.90;5.10;;;;;;;8.29;69.45;100013.73;110624;1250;23025;-76
2022/04/20 11:44:41;;;;;;;7.40;6.30;;;;;;;8.26;69.21;100013.14;110449;1256;22013;-77
2022/04/20 11:47:21;;;;;;;9.30;6.30;;;;;;;8.23;69.23;100012.54;110225;1257;22064;-76
2022/04/20 11:49:51;;;;;;;8.10;5.80;;;;;;;8.21;69.29;100008.69;109991;1259;268939;-76
2022/04/20 11:52:26;;;;;;;;;;;;;;;8.18;69.23;100005.92;110003;1259;22026;-76
2022/04/20 11:55:20;;;;;;;9.80;7.40;;;;;;;8.00;69.22;100002.25;110034;1259;22943;-76
2022/04/20 11:57:49;;;;;;;6.30;5.40;;;;;;;7.93;69.49;100005.27;110377;1259;24371;-76
2022/04/20 12:00:21;;;;;;;7.90;6.40;;;;;;;7.92;69.58;100004.35;109838;1262;23127;-76
2022/04/20 12:02:50;;;;;;;;;;;;;;;7.93;69.64;100003.18;110241;1258;21959;-77
2022/04/20 12:05:20;;;;;;;9.90;7.00;;;;;;;7.89;69.82;99995.55;110351;1257;21965;-76
2022/04/20 12:07:50;;;;;;;9.90;8.10;;;;;;;7.92;70.05;99988.08;110318;1258;22056;-77
2022/04/20 12:10:20;;;;;;;12.10;8.60;;;;;;;7.94;70.17;99987.17;110456;1255;21972;-78
2022/04/20 12:12:49;;;;;;;8.70;7.50;;;;;;;7.94;70.40;99986.81;110171;1258;21983;-76
2022/04/20 12:15:22;;;;;;;11.70;9.50;;;;;;;7.92;70.50;99987.55;110475;1251;22028;-76
2022/04/20 12:17:56;;;;;;;12.90;8.70;;;;;;;7.90;70.68;99985.51;110596;1252;22346;-77
2022/04/20 12:20:25;;;;;;;12.00;7.90;;;;;;;7.90;70.87;99984.98;110563;1253;23030;-77
2022/04/20 12:23:07;;;;;;;8.40;7.60;;;;;;;7.92;70.95;99988.95;110672;1252;23581;-76
2022/04/20 12:25:36;;;;;;;8.10;7.30;;;;;;;7.94;71.07;99993.42;110693;1250;23624;-76
2022/04/20 12:28:35;;;;;;;8.40;7.50;;;;;;;7.96;71.26;100000.06;110699;1250;23565;-76
2022/04/20 12:30:59;;;;;;;9.90;7.90;;;;;;;7.95;71.37;100003.48;110687;1249;21960;-76
2022/04/20 12:33:30;;;;;;;8.50;7.30;;;;;;;7.95;71.58;100001.41;110647;1252;24359;-77
2022/04/20 12:36:08;;;;;;;8.00;6.60;;;;;;;7.96;71.48;99997.14;110644;1252;21956;-76